Time;durP1;ratioP1;P1;durP2;ratioP2;P2;SDS_P1;SDS_P2;PMS_P1;PMS_P2;Temp;Humidity;BMP_temperature;BMP_pressure;BME280_temperature;BME280_humidity;BME280_pressure;Samples;Min_cycle;Max_cycle;Signal;HPM_P1;HPM_P2
2022/07/05 00:00:49;;;;;;;9.95;3.90;;;13.80;99.90;;;;;;4959958;28;173949;-79
2022/07/05 00:03:15;;;;;;;8.50;3.30;;;13.80;99.90;;;;;;4989910;28;20058;-80
2022/07/05 00:05:41;;;;;;;8.95;3.45;;;13.80;99.90;;;;;;4932749;28;205614;-80
2022/07/05 00:08:08;;;;;;;10.07;3.30;;;13.70;99.90;;;;;;4977126;28;20419;-80
2022/07/05 00:10:37;;;;;;;8.73;3.22;;;13.70;99.90;;;;;;4945471;28;206318;-80
2022/07/05 00:13:05;;;;;;;8.75;3.33;;;13.70;99.90;;;;;;4975969;28;20049;-79
2022/07/05 00:15:31;;;;;;;9.10;3.47;;;13.70;99.90;;;;;;4964840;28;212752;-80
2022/07/05 00:17:57;;;;;;;9.02;3.70;;;13.70;99.90;;;;;;4975857;28;20046;-81
2022/07/05 00:20:24;;;;;;;8.95;3.35;;;13.60;99.90;;;;;;4965208;28;206674;-80
2022/07/05 00:22:50;;;;;;;9.77;3.33;;;13.60;99.90;;;;;;4993981;28;20419;-79
2022/07/05 00:25:17;;;;;;;9.73;3.78;;;13.60;99.90;;;;;;4982716;28;121619;-79
2022/07/05 00:27:43;;;;;;;9.95;3.38;;;13.60;99.90;;;;;;4931949;28;211258;-79
2022/07/05 00:30:10;;;;;;;8.40;3.15;;;13.60;99.90;;;;;;4989544;28;204478;-79
2022/07/05 00:32:37;;;;;;;10.52;3.47;;;13.50;99.90;;;;;;4937925;28;210475;-80
2022/07/05 00:35:08;;;;;;;10.40;3.40;;;13.50;99.90;;;;;;4993300;28;132626;-79
2022/07/05 00:37:34;;;;;;;9.55;3.28;;;13.50;99.90;;;;;;4954127;28;205003;-80
2022/07/05 00:40:01;;;;;;;11.23;3.22;;;13.50;99.90;;;;;;4987752;28;209797;-80
2022/07/05 00:42:27;;;;;;;11.52;3.45;;;13.50;99.90;;;;;;4930580;28;205470;-79
2022/07/05 00:44:53;;;;;;;8.55;3.20;;;13.40;99.90;;;;;;4996926;28;53199;-79
2022/07/05 00:47:20;;;;;;;9.38;3.40;;;13.40;99.90;;;;;;4940720;28;209435;-80
2022/07/05 00:49:46;;;;;;;11.00;3.45;;;13.40;99.90;;;;;;4988824;28;103700;-80
2022/07/05 00:52:12;;;;;;;9.75;3.40;;;13.40;99.90;;;;;;4936909;28;203930;-80
2022/07/05 00:54:39;;;;;;;10.52;3.47;;;13.40;99.90;;;;;;4997590;28;45248;-80
2022/07/05 00:57:06;;;;;;;10.18;3.50;;;13.40;99.90;;;;;;4928129;28;208597;-79
2022/07/05 00:59:33;;;;;;;11.32;3.90;;;13.40;99.90;;;;;;4990568;28;150391;-79
2022/07/05 01:01:59;;;;;;;11.13;3.60;;;13.30;99.90;;;;;;4956307;28;205584;-80
2022/07/05 01:04:25;;;;;;;7.63;2.90;;;13.30;99.90;;;;;;4967518;28;253136;-79
2022/07/05 01:06:52;;;;;;;10.35;3.88;;;13.20;99.90;;;;;;4931860;28;163145;-80
2022/07/05 01:09:20;;;;;;;9.88;3.30;;;13.20;99.90;;;;;;4961957;28;249669;-80
2022/07/05 01:11:48;;;;;;;11.88;3.70;;;13.20;99.90;;;;;;4953410;28;224031;-80
2022/07/05 01:14:18;;;;;;;7.53;3.10;;;13.20;99.90;;;;;;4979120;28;266502;-79
2022/07/05 01:16:45;;;;;;;8.48;2.97;;;13.20;99.90;;;;;;4939073;28;208149;-80
2022/07/05 01:19:13;;;;;;;10.00;3.50;;;13.10;99.90;;;;;;4979306;28;259188;-79
2022/07/05 01:21:47;;;;;;;9.05;3.50;;;13.20;99.90;;;;;;4936387;28;205692;-80
2022/07/05 01:24:15;;;;;;;10.73;3.70;;;13.10;99.90;;;;;;4977652;28;262723;-79
2022/07/05 01:26:44;;;;;;;9.48;3.83;;;13.10;99.90;;;;;;4949940;28;191583;-80
2022/07/05 01:29:11;;;;;;;8.57;3.40;;;13.00;99.90;;;;;;4970652;28;258562;-80
2022/07/05 01:31:39;;;;;;;10.40;3.83;;;13.00;99.90;;;;;;4951721;28;153844;-80
2022/07/05 01:34:06;;;;;;;10.32;3.67;;;13.10;99.90;;;;;;4991340;28;20543;-79
2022/07/05 01:36:34;;;;;;;10.95;4.32;;;13.00;99.90;;;;;;4939718;28;205136;-79
2022/07/05 01:39:02;;;;;;;9.90;4.22;;;13.00;99.90;;;;;;4975813;28;20675;-80
2022/07/05 01:41:28;;;;;;;10.07;3.95;;;13.00;99.90;;;;;;4944799;28;211441;-80
2022/07/05 01:43:54;;;;;;;9.80;3.90;;;12.90;99.90;;;;;;4994155;28;20051;-79
2022/07/05 01:46:23;;;;;;;9.07;4.07;;;12.90;99.90;;;;;;4926832;28;233072;-79
2022/07/05 01:48:55;;;;;;;12.15;4.32;;;12.90;99.90;;;;;;5003614;28;20058;-80
2022/07/05 01:51:29;;;;;;;9.07;3.83;;;12.90;99.90;;;;;;4923684;28;212006;-80
2022/07/05 01:53:55;;;;;;;8.98;4.32;;;12.80;99.90;;;;;;4990179;28;20535;-80
2022/07/05 01:56:21;;;;;;;10.30;4.30;;;12.80;99.90;;;;;;4926947;28;206301;-81
2022/07/05 01:58:50;;;;;;;9.00;4.28;;;12.80;99.90;;;;;;5003569;28;20858;-81
2022/07/05 02:01:32;;;;;;;12.02;4.25;;;12.80;99.90;;;;;;4936649;28;202765;-80
2022/07/05 02:03:59;;;;;;;9.90;4.00;;;12.80;99.90;;;;;;5017666;28;20050;-79
2022/07/05 02:06:25;;;;;;;9.70;4.10;;;12.70;99.90;;;;;;4928713;28;207585;-79
2022/07/05 02:08:51;;;;;;;11.50;4.07;;;12.80;99.90;;;;;;4998088;28;20077;-80
2022/07/05 02:11:17;;;;;;;9.25;3.90;;;12.70;99.90;;;;;;4937623;28;209664;-81
2022/07/05 02:13:43;;;;;;;9.50;3.78;;;12.70;99.90;;;;;;4967935;28;20050;-79
2022/07/05 02:16:09;;;;;;;9.65;3.83;;;12.70;99.90;;;;;;4936000;28;200422;-79
2022/07/05 02:18:35;;;;;;;10.05;4.30;;;12.70;99.90;;;;;;4990142;28;20049;-81
2022/07/05 02:21:01;;;;;;;8.73;4.00;;;12.60;99.90;;;;;;4946392;28;117895;-79
2022/07/05 02:23:28;;;;;;;9.75;3.85;;;12.60;99.90;;;;;;4987473;28;20046;-80
2022/07/05 02:25:54;;;;;;;11.98;4.18;;;12.60;99.90;;;;;;4906175;28;219120;-80
2022/07/05 02:28:20;;;;;;;10.25;4.38;;;12.60;99.90;;;;;;4984378;28;20057;-80
2022/07/05 02:30:47;;;;;;;8.88;4.60;;;12.60;99.90;;;;;;4969941;28;206702;-81
2022/07/05 02:33:14;;;;;;;12.23;5.43;;;12.60;99.90;;;;;;5005895;28;20061;-80
2022/07/05 02:35:40;;;;;;;11.05;5.45;;;12.50;99.90;;;;;;4937162;28;215551;-80
2022/07/05 02:38:06;;;;;;;9.65;4.95;;;12.50;99.90;;;;;;4997282;28;20070;-82
2022/07/05 02:40:32;;;;;;;11.93;5.20;;;12.50;99.90;;;;;;4940655;28;211509;-80
2022/07/05 02:42:58;;;;;;;10.57;5.20;;;12.50;99.90;;;;;;4994414;28;20407;-80
2022/07/05 02:45:25;;;;;;;11.82;5.30;;;12.50;99.90;;;;;;4952321;28;91611;-79
2022/07/05 02:47:51;;;;;;;10.93;5.30;;;12.40;99.90;;;;;;4989356;28;20058;-81
2022/07/05 02:50:17;;;;;;;10.63;5.70;;;12.40;99.90;;;;;;4970857;28;214620;-80
2022/07/05 02:52:43;;;;;;;11.50;5.80;;;12.40;99.90;;;;;;4986081;28;101895;-80
2022/07/05 02:55:09;;;;;;;14.13;5.85;;;12.40;99.90;;;;;;4989645;28;192889;-81
2022/07/05 02:57:39;;;;;;;10.85;5.85;;;12.40;99.90;;;;;;4944938;28;205970;-80
2022/07/05 03:00:06;;;;;;;10.45;5.75;;;12.30;99.90;;;;;;4990857;28;115420;-82
2022/07/05 03:02:32;;;;;;;11.23;5.65;;;12.30;99.90;;;;;;4945502;28;206812;-80
2022/07/05 03:04:58;;;;;;;14.85;6.30;;;12.30;99.90;;;;;;4973226;28;142976;-79
2022/07/05 03:07:24;;;;;;;12.00;5.72;;;12.30;99.90;;;;;;4937039;28;213878;-80
2022/07/05 03:09:50;;;;;;;12.43;6.10;;;12.30;99.90;;;;;;4977902;28;87793;-81
2022/07/05 03:12:16;;;;;;;12.65;6.40;;;12.30;99.90;;;;;;4933645;28;187212;-80
2022/07/05 03:14:43;;;;;;;12.63;7.13;;;12.30;99.90;;;;;;4978015;28;48995;-80
2022/07/05 03:17:09;;;;;;;13.05;6.28;;;12.20;99.90;;;;;;4941161;28;206840;-80
2022/07/05 03:19:35;;;;;;;11.27;5.82;;;12.20;99.90;;;;;;4992905;28;155506;-81
2022/07/05 03:22:01;;;;;;;12.45;6.32;;;12.20;99.90;;;;;;4950152;28;198741;-79
2022/07/05 03:24:27;;;;;;;10.82;6.43;;;12.20;99.90;;;;;;4990315;28;251538;-81
2022/07/05 03:26:53;;;;;;;10.00;6.53;;;12.20;99.90;;;;;;4932170;28;215293;-83
2022/07/05 03:29:20;;;;;;;12.52;6.35;;;12.10;99.90;;;;;;4967210;28;268058;-80
2022/07/05 03:31:46;;;;;;;11.82;6.70;;;12.10;99.90;;;;;;4947361;28;218247;-81
2022/07/05 03:34:12;;;;;;;11.85;6.47;;;12.10;99.90;;;;;;4965618;28;256840;-81
2022/07/05 03:36:38;;;;;;;15.35;7.70;;;12.10;99.90;;;;;;4956246;28;168967;-80
2022/07/05 03:39:04;;;;;;;13.73;7.20;;;12.10;99.90;;;;;;4983201;28;20058;-80
2022/07/05 03:41:30;;;;;;;12.35;6.90;;;12.10;99.90;;;;;;4924285;28;205593;-82
2022/07/05 03:43:56;;;;;;;11.43;7.07;;;12.10;99.90;;;;;;4997095;28;20066;-80
2022/07/05 03:46:22;;;;;;;14.32;7.55;;;12.10;99.90;;;;;;4943550;28;217252;-80
2022/07/05 03:48:48;;;;;;;17.55;7.25;;;12.10;99.90;;;;;;4998874;28;20053;-80
2022/07/05 03:51:15;;;;;;;15.18;7.63;;;12.20;99.90;;;;;;4929913;28;279959;-82
2022/07/05 03:53:41;;;;;;;11.57;7.40;;;12.20;99.90;;;;;;4993281;28;20053;-80
2022/07/05 03:56:07;;;;;;;12.15;7.25;;;12.20;99.90;;;;;;4930707;28;210513;-80
2022/07/05 03:58:33;;;;;;;13.45;7.53;;;12.20;99.90;;;;;;4982603;28;20057;-81
2022/07/05 04:00:59;;;;;;;13.20;7.22;;;12.20;99.90;;;;;;4944345;28;238017;-80
2022/07/05 04:03:26;;;;;;;13.15;7.03;;;12.30;99.90;;;;;;4982614;28;20299;-80
2022/07/05 04:05:52;;;;;;;13.00;7.40;;;12.30;99.90;;;;;;4931153;28;209554;-80
2022/07/05 04:08:18;;;;;;;11.75;6.88;;;12.30;99.90;;;;;;4954273;28;20046;-80
2022/07/05 04:10:44;;;;;;;15.70;7.60;;;12.40;99.90;;;;;;4918333;28;207982;-80
2022/07/05 04:13:10;;;;;;;14.00;7.47;;;12.50;99.90;;;;;;4980798;28;20518;-81
2022/07/05 04:15:38;;;;;;;11.65;6.85;;;12.50;99.90;;;;;;4925335;28;207692;-80
2022/07/05 04:18:04;;;;;;;14.25;7.40;;;12.50;99.90;;;;;;4989321;28;20050;-81
2022/07/05 04:20:31;;;;;;;10.80;6.78;;;12.60;99.90;;;;;;4942382;28;226455;-80
2022/07/05 04:22:57;;;;;;;13.95;7.35;;;12.60;99.90;;;;;;4989127;28;20046;-81
2022/07/05 04:25:24;;;;;;;12.98;7.50;;;12.70;99.90;;;;;;4952886;28;130508;-82
2022/07/05 04:27:53;;;;;;;12.60;7.30;;;12.70;99.90;;;;;;4985528;28;20072;-80
2022/07/05 04:30:21;;;;;;;13.45;7.05;;;12.80;99.90;;;;;;4949933;28;215742;-80
2022/07/05 04:32:48;;;;;;;13.02;7.50;;;12.80;99.90;;;;;;4947374;28;211235;-80
2022/07/05 04:35:14;;;;;;;10.73;6.40;;;12.80;99.90;;;;;;4982103;28;252355;-80
2022/07/05 04:37:42;;;;;;;13.15;6.78;;;12.80;99.90;;;;;;4953543;28;111116;-80
2022/07/05 04:40:11;;;;;;;12.45;6.60;;;12.80;99.90;;;;;;4988174;28;230528;-80
2022/07/05 04:42:38;;;;;;;10.55;6.20;;;12.80;99.90;;;;;;4941508;28;206619;-80
2022/07/05 04:45:05;;;;;;;13.27;6.72;;;12.90;99.90;;;;;;4983623;28;127699;-80
2022/07/05 04:47:31;;;;;;;10.60;6.80;;;13.00;99.90;;;;;;4937640;28;211390;-80
2022/07/05 04:50:00;;;;;;;13.52;6.50;;;13.00;99.90;;;;;;4990022;28;148327;-82
2022/07/05 04:52:26;;;;;;;11.93;6.68;;;13.10;99.90;;;;;;4958868;28;210161;-80
2022/07/05 04:54:53;;;;;;;11.02;6.40;;;13.20;99.90;;;;;;4979814;28;29112;-81
2022/07/05 04:57:19;;;;;;;14.23;6.25;;;13.30;99.90;;;;;;4945997;28;214495;-81
2022/07/05 04:59:45;;;;;;;10.40;6.07;;;13.30;99.90;;;;;;5008520;28;37622;-80
2022/07/05 05:02:12;;;;;;;10.93;6.28;;;13.40;99.90;;;;;;4951237;28;205124;-81
2022/07/05 05:04:38;;;;;;;11.38;6.10;;;13.50;99.90;;;;;;4975061;28;158983;-81
2022/07/05 05:07:04;;;;;;;12.50;5.93;;;13.60;99.90;;;;;;4936473;28;201429;-80
2022/07/05 05:09:30;;;;;;;10.43;5.82;;;13.70;99.90;;;;;;4977367;28;148589;-81
2022/07/05 05:11:57;;;;;;;11.50;6.05;;;13.80;99.90;;;;;;4942091;28;202915;-80
2022/07/05 05:14:23;;;;;;;10.68;5.95;;;13.80;99.90;;;;;;4985100;28;296751;-81
2022/07/05 05:16:50;;;;;;;10.82;5.88;;;13.90;99.90;;;;;;4954384;28;160212;-80
2022/07/05 05:19:16;;;;;;;12.80;6.05;;;14.00;99.90;;;;;;4967092;28;264568;-81
2022/07/05 05:21:42;;;;;;;11.68;5.90;;;14.10;99.90;;;;;;4945699;28;230462;-81
2022/07/05 05:24:08;;;;;;;12.40;5.40;;;14.20;99.90;;;;;;4993660;28;274834;-80
2022/07/05 05:26:34;;;;;;;11.40;5.20;;;14.30;99.90;;;;;;4957357;28;204855;-81
2022/07/05 05:29:00;;;;;;;12.52;5.63;;;14.30;99.90;;;;;;5002398;28;20081;-80
2022/07/05 05:31:27;;;;;;;11.45;5.05;;;14.40;99.90;;;;;;4948184;28;260418;-81
2022/07/05 05:33:53;;;;;;;12.00;5.13;;;14.40;99.90;;;;;;4995734;28;20050;-81
2022/07/05 05:36:19;;;;;;;9.48;5.22;;;14.50;99.90;;;;;;4943828;28;203865;-80
2022/07/05 05:38:46;;;;;;;11.27;5.30;;;14.60;99.90;;;;;;4986674;28;20053;-81
2022/07/05 05:41:12;;;;;;;12.45;5.00;;;14.70;99.90;;;;;;4930797;28;177797;-81
2022/07/05 05:43:38;;;;;;;10.85;4.72;;;14.80;99.90;;;;;;4982358;28;20084;-80
2022/07/05 05:46:04;;;;;;;14.10;5.03;;;14.90;99.90;;;;;;4942824;28;207528;-80
2022/07/05 05:48:30;;;;;;;10.65;4.28;;;15.00;99.90;;;;;;4991810;28;20058;-80
2022/07/05 05:50:56;;;;;;;11.48;4.53;;;15.10;99.90;;;;;;4942501;28;218663;-80
2022/07/05 05:53:23;;;;;;;10.95;4.35;;;15.20;99.90;;;;;;4991009;28;20045;-80
2022/07/05 05:55:49;;;;;;;11.30;4.20;;;15.40;99.90;;;;;;4948814;28;204526;-80
2022/07/05 05:58:21;;;;;;;10.27;3.78;;;15.50;99.90;;;;;;4990962;28;21480;-80
2022/07/05 06:00:48;;;;;;;10.77;4.22;;;15.60;99.90;;;;;;4940257;28;206000;-80
2022/07/05 06:03:18;;;;;;;11.73;4.05;;;15.70;99.90;;;;;;4984983;28;20049;-80
2022/07/05 06:05:45;;;;;;;9.10;3.95;;;15.70;99.90;;;;;;4926120;28;245058;-80
2022/07/05 06:08:11;;;;;;;9.70;3.47;;;15.80;99.90;;;;;;4980298;28;20580;-79
2022/07/05 06:10:38;;;;;;;9.45;3.70;;;16.00;99.90;;;;;;4930749;28;218035;-80
2022/07/05 06:13:07;;;;;;;12.23;3.38;;;16.20;99.90;;;;;;4982690;28;20065;-79
2022/07/05 06:15:33;;;;;;;8.30;3.00;;;16.40;99.90;;;;;;4950273;28;206425;-79
2022/07/05 06:18:00;;;;;;;10.05;2.90;;;16.60;99.90;;;;;;4989130;28;20058;-79
2022/07/05 06:20:34;;;;;;;9.48;3.00;;;16.80;99.90;;;;;;4941619;28;233695;-79
2022/07/05 06:23:01;;;;;;;13.13;2.85;;;17.00;99.90;;;;;;4975247;28;20050;-79
2022/07/05 06:25:28;;;;;;;6.85;2.33;;;17.10;99.90;;;;;;4951260;28;204741;-79
2022/07/05 06:27:56;;;;;;;7.85;2.20;;;17.30;99.90;;;;;;4988949;28;20424;-80
2022/07/05 06:30:24;;;;;;;7.30;2.20;;;17.40;99.90;;;;;;4957237;28;123856;-80
2022/07/05 06:32:50;;;;;;;7.75;2.22;;;17.60;99.90;;;;;;4994888;28;20060;-80
2022/07/05 06:35:17;;;;;;;11.38;2.30;;;17.70;99.90;;;;;;4983264;28;159528;-79
2022/07/05 06:37:47;;;;;;;7.97;2.22;;;18.00;99.90;;;;;;4967972;28;203257;-79
2022/07/05 06:40:21;;;;;;;8.00;2.10;;;18.10;99.90;;;;;;4982666;28;155031;-79
2022/07/05 06:42:47;;;;;;;8.93;2.03;;;18.30;99.90;;;;;;4924009;28;209097;-79
2022/07/05 06:45:13;;;;;;;7.97;1.70;;;18.40;99.90;;;;;;5004359;28;190427;-80
2022/07/05 06:47:40;;;;;;;6.18;1.25;;;18.60;99.90;;;;;;4990659;28;133726;-79
2022/07/05 06:50:06;;;;;;;7.57;1.42;;;18.70;99.90;;;;;;4987702;28;135685;-79
2022/07/05 06:52:33;;;;;;;8.77;1.70;;;18.90;99.90;;;;;;4951998;28;207113;-80
2022/07/05 06:55:00;;;;;;;9.07;1.80;;;19.10;99.90;;;;;;4995497;28;262978;-79
2022/07/05 06:57:26;;;;;;;8.23;1.50;;;19.10;99.90;;;;;;4965865;28;202828;-79
2022/07/05 06:59:52;;;;;;;9.23;1.50;;;19.10;99.90;;;;;;4987543;28;104944;-79
2022/07/05 07:02:19;;;;;;;8.27;1.35;;;19.20;99.90;;;;;;4945829;28;209111;-79
2022/07/05 07:04:46;;;;;;;7.53;1.33;;;19.30;99.90;;;;;;4983371;28;239753;-80
2022/07/05 07:10:01;;;;;;;7.15;1.40;;;19.40;99.90;;;;;;5009435;28;23896;-79
2022/07/05 07:12:29;;;;;;;7.20;1.38;;;19.60;99.90;;;;;;4960843;28;203757;-80
2022/07/05 07:14:56;;;;;;;8.90;1.30;;;19.80;99.90;;;;;;4995680;28;144675;-80
2022/07/05 07:17:23;;;;;;;6.90;1.23;;;20.00;99.90;;;;;;4955197;28;206283;-79
2022/07/05 07:19:50;;;;;;;6.97;1.20;;;20.10;99.70;;;;;;5002470;28;20050;-80
2022/07/05 07:22:16;;;;;;;7.15;1.13;;;20.00;99.40;;;;;;4960277;28;85426;-79
2022/07/05 07:24:42;;;;;;;7.30;1.05;;;20.00;99.90;;;;;;5005576;28;211951;-80
2022/07/05 07:27:08;;;;;;;8.38;1.40;;;20.00;99.40;;;;;;4970372;28;193876;-80
2022/07/05 07:29:37;;;;;;;7.00;1.33;;;19.90;99.00;;;;;;4983462;28;216239;-80
2022/07/05 07:32:04;;;;;;;7.85;1.20;;;19.80;99.10;;;;;;4970737;28;205403;-79
2022/07/05 07:34:31;;;;;;;5.68;1.20;;;19.60;99.20;;;;;;4990346;28;200066;-80
2022/07/05 07:36:58;;;;;;;8.80;1.10;;;19.40;99.30;;;;;;4945383;28;206384;-80
2022/07/05 07:39:26;;;;;;;6.75;1.40;;;19.50;98.60;;;;;;4989901;28;261814;-79
2022/07/05 07:41:52;;;;;;;5.05;1.10;;;19.80;98.80;;;;;;4945630;28;203502;-79
2022/07/05 07:44:19;;;;;;;6.50;1.15;;;20.10;98.20;;;;;;4994663;28;250241;-79
2022/07/05 07:46:46;;;;;;;7.20;1.30;;;20.10;98.40;;;;;;4972072;28;194873;-79
2022/07/05 07:49:12;;;;;;;6.38;1.00;;;19.90;97.10;;;;;;4989416;28;257623;-80
2022/07/05 07:51:40;;;;;;;3.83;0.88;;;19.70;96.70;;;;;;4960376;28;203275;-80
2022/07/05 07:54:06;;;;;;;10.93;1.10;;;19.50;94.40;;;;;;5007745;28;20056;-79
2022/07/05 07:56:32;;;;;;;7.43;1.10;;;19.40;95.30;;;;;;4919970;28;202657;-79
2022/07/05 07:58:58;;;;;;;7.93;1.27;;;19.40;95.00;;;;;;4997278;28;20049;-79
2022/07/05 08:01:25;;;;;;;7.32;1.00;;;19.20;95.50;;;;;;4925380;28;216609;-79
2022/07/05 08:03:51;;;;;;;6.28;0.95;;;19.00;95.40;;;;;;4983569;28;20524;-79
2022/07/05 08:06:17;;;;;;;6.80;1.10;;;18.90;96.00;;;;;;4935267;28;205944;-79
2022/07/05 08:08:44;;;;;;;8.10;1.20;;;18.90;96.00;;;;;;4992963;28;20058;-79
2022/07/05 08:11:11;;;;;;;10.55;1.10;;;19.10;96.30;;;;;;4948016;28;220616;-79
2022/07/05 08:13:40;;;;;;;6.35;1.00;;;19.60;96.70;;;;;;5003742;28;20053;-79
2022/07/05 08:16:07;;;;;;;8.88;1.20;;;20.00;94.10;;;;;;4950479;28;205446;-79
2022/07/05 08:21:31;;;;;;;6.60;1.20;;;20.60;91.20;;;;;;4958856;28;206055;-79
2022/07/05 08:23:57;;;;;;;7.00;1.10;;;20.90;93.40;;;;;;5005267;28;20058;-79
2022/07/05 08:26:23;;;;;;;5.13;1.10;;;21.20;93.60;;;;;;4953569;28;199988;-79
2022/07/05 08:28:50;;;;;;;7.78;1.13;;;21.30;92.10;;;;;;4999360;28;20049;-79
2022/07/05 08:31:16;;;;;;;6.68;1.08;;;21.20;88.20;;;;;;4948895;28;210451;-79
2022/07/05 08:33:43;;;;;;;8.98;1.25;;;21.40;87.00;;;;;;4987170;28;20057;-79
2022/07/05 08:36:09;;;;;;;8.15;1.20;;;21.40;82.90;;;;;;4940164;28;205199;-79
2022/07/05 08:38:35;;;;;;;6.30;1.10;;;21.30;88.60;;;;;;4987491;28;20062;-79
2022/07/05 08:41:02;;;;;;;5.35;1.00;;;21.80;88.10;;;;;;4932750;28;212510;-79
2022/07/05 08:43:29;;;;;;;9.93;1.55;;;22.20;83.60;;;;;;4988200;28;20446;-79
2022/07/05 08:45:58;;;;;;;7.35;1.10;;;22.50;85.30;;;;;;4946099;28;210356;-79
2022/07/05 08:48:24;;;;;;;7.03;1.20;;;22.80;81.80;;;;;;4992145;28;20054;-79
2022/07/05 08:50:52;;;;;;;5.60;1.00;;;22.50;79.30;;;;;;4944674;28;205265;-80
2022/07/05 08:53:19;;;;;;;5.28;0.90;;;21.90;77.40;;;;;;4988501;28;20058;-80
2022/07/05 08:55:46;;;;;;;9.50;1.30;;;21.40;81.40;;;;;;4934973;28;205708;-80
2022/07/05 08:58:12;;;;;;;7.60;1.27;;;21.10;82.20;;;;;;5003090;28;20061;-80
2022/07/05 09:00:43;;;;;;;8.75;1.20;;;21.30;84.40;;;;;;4954052;28;195706;-80
2022/07/05 09:03:09;;;;;;;6.50;1.10;;;21.50;82.80;;;;;;4997662;28;20065;-80
2022/07/05 09:05:42;;;;;;;6.85;1.13;;;21.50;81.90;;;;;;4950920;28;284173;-80
2022/07/05 09:08:12;;;;;;;9.73;1.20;;;21.20;80.00;;;;;;4999922;28;20062;-80
2022/07/05 09:10:42;;;;;;;7.40;1.35;;;21.00;84.30;;;;;;4960778;28;207850;-80
2022/07/05 09:13:08;;;;;;;5.03;1.10;;;20.80;82.20;;;;;;4990970;28;20094;-80
2022/07/05 09:15:38;;;;;;;6.55;1.00;;;20.50;83.50;;;;;;4955760;28;205485;-80
2022/07/05 09:18:05;;;;;;;9.13;1.08;;;20.30;84.10;;;;;;4997331;28;20064;-80
2022/07/05 09:20:31;;;;;;;5.60;1.17;;;20.00;85.50;;;;;;4938319;28;207720;-80
2022/07/05 09:22:57;;;;;;;7.18;1.00;;;19.90;86.60;;;;;;5000354;28;20064;-80
2022/07/05 09:25:28;;;;;;;7.90;1.00;;;20.20;88.50;;;;;;4938444;28;155757;-80
2022/07/05 09:27:58;;;;;;;;;;;20.60;86.20;;;;;;5005526;28;20050;-80
2022/07/05 09:30:29;;;;;;;6.53;1.33;;;20.50;84.00;;;;;;4957149;28;206857;-80
2022/07/05 09:33:15;;;;;;;6.20;1.00;;;20.30;85.90;;;;;;4976192;28;20057;-80
2022/07/05 09:35:43;;;;;;;6.80;1.30;;;20.20;86.40;;;;;;4946789;28;259038;-80
2022/07/05 09:38:20;;;;;;;6.45;1.35;;;20.00;88.00;;;;;;4995077;28;20060;-80
2022/07/05 09:40:49;;;;;;;8.40;1.38;;;20.30;87.80;;;;;;4953941;28;208911;-80
2022/07/05 09:43:17;;;;;;;6.85;1.15;;;20.80;86.90;;;;;;4986201;28;20068;-80
2022/07/05 09:46:00;;;;;;;6.65;1.27;;;21.10;85.10;;;;;;4949624;28;255015;-80
2022/07/05 09:48:28;;;;;;;7.10;1.00;;;21.60;83.20;;;;;;4999168;28;20053;-80
2022/07/05 09:51:10;;;;;;;6.55;1.10;;;21.50;81.20;;;;;;4953668;28;186384;-80
2022/07/05 09:53:49;;;;;;;8.50;1.20;;;21.30;79.50;;;;;;5007005;28;20057;-80
2022/07/05 09:56:15;;;;;;;6.78;1.10;;;21.20;81.70;;;;;;4959520;28;250780;-80
2022/07/05 09:58:42;;;;;;;7.50;1.02;;;20.90;83.70;;;;;;5016437;28;20044;-81
2022/07/05 10:01:31;;;;;;;5.55;1.13;;;20.50;80.80;;;;;;4957198;28;230862;-80
2022/07/05 10:04:03;;;;;;;7.18;1.10;;;20.20;82.40;;;;;;5016248;28;20062;-80
2022/07/05 10:06:32;;;;;;;7.18;1.25;;;20.20;84.10;;;;;;4939922;28;205662;-80
2022/07/05 10:08:59;;;;;;;6.43;1.17;;;20.20;83.60;;;;;;4984840;28;20062;-79
2022/07/05 10:11:26;;;;;;;6.07;1.08;;;20.10;84.10;;;;;;4943434;28;207696;-80
2022/07/05 10:13:53;;;;;;;9.18;1.25;;;20.20;84.00;;;;;;4984695;28;20050;-80
2022/07/05 10:16:22;;;;;;;5.90;1.10;;;20.30;85.00;;;;;;4948725;28;148315;-80
2022/07/05 10:18:54;;;;;;;6.53;1.20;;;20.50;83.90;;;;;;4998899;28;20058;-80
2022/07/05 10:21:23;;;;;;;7.55;1.33;;;20.60;85.00;;;;;;4940687;28;212124;-80
2022/07/05 10:23:55;;;;;;;6.18;1.10;;;20.60;83.70;;;;;;5004115;28;20046;-80
2022/07/05 10:26:24;;;;;;;9.02;1.20;;;20.60;83.60;;;;;;4927087;28;233482;-80
2022/07/05 10:28:52;;;;;;;10.13;1.33;;;20.40;83.90;;;;;;4997098;28;20062;-80
2022/07/05 10:31:19;;;;;;;9.57;1.73;;;20.40;85.60;;;;;;4938505;28;236226;-79
2022/07/05 10:33:45;;;;;;;7.70;1.40;;;20.50;86.30;;;;;;5001724;28;20053;-80
2022/07/05 10:36:13;;;;;;;9.73;1.45;;;20.70;85.90;;;;;;4937317;28;205506;-80
2022/07/05 10:38:45;;;;;;;8.38;1.48;;;20.70;86.40;;;;;;4999411;28;20863;-80
2022/07/05 10:41:17;;;;;;;5.60;1.10;;;20.70;86.70;;;;;;4944821;28;201688;-80
2022/07/05 10:43:43;;;;;;;7.97;1.50;;;20.90;87.10;;;;;;4988647;28;20049;-80
2022/07/05 10:46:09;;;;;;;8.70;1.52;;;20.50;85.70;;;;;;4925234;28;245302;-80
2022/07/05 10:48:35;;;;;;;7.78;1.38;;;20.20;85.60;;;;;;4985135;28;20053;-80
2022/07/05 10:51:15;;;;;;;7.10;1.40;;;20.30;86.20;;;;;;4941403;28;206199;-80
2022/07/05 10:53:41;;;;;;;7.63;1.33;;;20.20;86.70;;;;;;4990432;28;20049;-79
2022/07/05 10:56:07;;;;;;;5.95;1.25;;;20.20;86.90;;;;;;4942117;28;205266;-80
2022/07/05 10:58:43;;;;;;;7.95;1.35;;;20.40;86.60;;;;;;4980894;28;20073;-80
2022/07/05 11:01:20;;;;;;;7.10;1.17;;;21.10;87.10;;;;;;4949750;28;206201;-80
2022/07/05 11:03:52;;;;;;;8.73;1.25;;;21.90;83.80;;;;;;5001731;28;20046;-80
2022/07/05 11:06:38;;;;;;;8.00;1.42;;;22.20;80.30;;;;;;4938175;28;138143;-80
2022/07/05 11:09:11;;;;;;;6.22;1.20;;;21.90;79.40;;;;;;4987662;28;20450;-80
2022/07/05 11:11:40;;;;;;;7.20;1.25;;;22.20;79.00;;;;;;4923968;28;203481;-80
2022/07/05 11:14:25;;;;;;;5.63;1.08;;;22.50;77.30;;;;;;5007678;28;20137;-80
2022/07/05 11:17:12;;;;;;;8.10;1.17;;;22.30;70.60;;;;;;4920376;28;212109;-80
2022/07/05 11:20:02;;;;;;;7.13;1.20;;;22.70;70.30;;;;;;4997367;28;117767;-80
2022/07/05 11:22:29;;;;;;;7.25;1.33;;;23.20;70.40;;;;;;4974111;28;211697;-79
2022/07/05 11:24:56;;;;;;;8.85;1.30;;;23.20;67.40;;;;;;5005706;28;221597;-80
2022/07/05 11:27:23;;;;;;;7.03;1.23;;;23.00;68.70;;;;;;4956945;28;203705;-80
2022/07/05 11:29:53;;;;;;;7.57;1.15;;;22.90;69.10;;;;;;4999777;28;133946;-80
2022/07/05 11:32:23;;;;;;;8.00;1.17;;;22.70;65.60;;;;;;4943498;28;167516;-80
2022/07/05 11:34:54;;;;;;;5.37;0.83;;;22.70;66.40;;;;;;5001677;28;84213;-80
2022/07/05 11:37:34;;;;;;;6.05;0.90;;;22.30;65.00;;;;;;4944594;28;208244;-80
2022/07/05 11:40:06;;;;;;;;;;;22.60;64.70;;;;;;4995517;28;54719;-80
2022/07/05 11:42:34;;;;;;;5.20;0.90;;;23.10;61.90;;;;;;4960800;28;207073;-80
2022/07/05 11:45:01;;;;;;;8.85;1.20;;;23.50;60.90;;;;;;5006402;28;56079;-80
2022/07/05 11:47:27;;;;;;;6.05;1.00;;;23.90;60.70;;;;;;4951529;28;216280;-79
2022/07/05 11:49:57;;;;;;;6.70;1.00;;;23.40;62.50;;;;;;4998568;28;143322;-80
2022/07/05 11:52:29;;;;;;;10.70;1.33;;;23.70;63.70;;;;;;4960495;28;206424;-80
2022/07/05 11:54:57;;;;;;;5.15;0.90;;;23.10;61.40;;;;;;4976980;28;168656;-80
2022/07/05 11:57:24;;;;;;;4.45;0.82;;;22.90;62.60;;;;;;4967578;28;57331;-80
2022/07/05 11:59:50;;;;;;;5.55;1.08;;;23.20;59.60;;;;;;4980395;28;185574;-80
2022/07/05 12:02:17;;;;;;;6.95;1.20;;;23.10;60.20;;;;;;4952311;28;242210;-80
2022/07/05 12:04:48;;;;;;;5.88;0.95;;;23.50;61.30;;;;;;4976952;28;244811;-80
2022/07/05 12:07:43;;;;;;;;;;;23.80;56.80;;;;;;4959742;28;201895;-80
2022/07/05 12:13:02;;;;;;;5.13;0.90;;;24.70;53.90;;;;;;4918415;28;206749;-80
2022/07/05 12:15:28;;;;;;;5.88;0.88;;;24.40;54.50;;;;;;4929633;28;208795;-80
2022/07/05 12:17:55;;;;;;;7.78;0.90;;;24.30;54.70;;;;;;4981263;28;20541;-80
2022/07/05 12:20:24;;;;;;;6.97;1.10;;;23.80;56.20;;;;;;4945017;28;136930;-80
2022/07/05 12:22:51;;;;;;;5.97;1.00;;;23.30;59.60;;;;;;4978281;28;20728;-80
2022/07/05 12:25:20;;;;;;;10.18;1.30;;;23.20;62.80;;;;;;4983953;28;194831;-80
2022/07/05 12:27:48;;;;;;;7.75;1.30;;;23.50;65.00;;;;;;4977715;28;214249;-80
2022/07/05 12:30:16;;;;;;;10.10;1.15;;;23.30;66.40;;;;;;4988645;28;58372;-80
2022/07/05 12:33:01;;;;;;;7.32;1.10;;;23.40;65.00;;;;;;4956973;28;84161;-80
2022/07/05 12:35:39;;;;;;;6.88;1.20;;;23.30;65.30;;;;;;4945165;28;209051;-80
2022/07/05 12:38:14;;;;;;;10.23;1.13;;;23.10;67.60;;;;;;4977952;28;20049;-80
2022/07/05 12:40:42;;;;;;;7.03;1.27;;;23.10;66.00;;;;;;4928928;28;204541;-80
2022/07/05 12:43:18;;;;;;;5.80;0.90;;;22.50;66.70;;;;;;4988714;28;20058;-80
2022/07/05 12:46:02;;;;;;;8.18;1.23;;;21.60;68.50;;;;;;4946068;28;151711;-80
2022/07/05 12:48:35;;;;;;;7.07;1.10;;;21.30;68.80;;;;;;4996075;28;20053;-80
2022/07/05 12:51:03;;;;;;;7.53;1.10;;;21.20;69.10;;;;;;4963763;28;206591;-80